createdAt,value
2022-08-17T00:03:52.582Z,54.96
2022-08-17T00:06:25.520Z,55.09
2022-08-17T00:08:56.953Z,55.32
2022-08-17T00:11:31.945Z,55.19
2022-08-17T00:14:09.792Z,55.13
2022-08-17T00:16:55.341Z,55.28
2022-08-17T00:20:15.900Z,55.63
2022-08-17T00:22:52.535Z,55.80
2022-08-17T00:25:23.741Z,56.04
2022-08-17T00:27:52.441Z,55.88
2022-08-17T00:30:24.114Z,56.44
2022-08-17T00:33:26.089Z,56.96
2022-08-17T00:35:56.889Z,57.18
2022-08-17T00:38:30.529Z,57.31
2022-08-17T00:44:00.327Z,57.95
2022-08-17T00:46:33.581Z,57.94
2022-08-17T00:52:56.754Z,57.95
2022-08-17T00:55:30.689Z,57.98
2022-08-17T00:58:02.107Z,58.31
2022-08-17T01:00:38.992Z,58.47
2022-08-17T01:03:09.950Z,58.99
2022-08-17T01:05:42.308Z,59.03
2022-08-17T01:08:13.241Z,59.17
2022-08-17T01:10:59.416Z,59.11
2022-08-17T01:13:40.426Z,59.47
2022-08-17T01:16:22.565Z,59.66
2022-08-17T01:18:53.073Z,59.76
2022-08-17T01:25:31.886Z,60.30
2022-08-17T01:28:04.084Z,60.24
2022-08-17T01:30:57.739Z,60.59
2022-08-17T01:33:21.188Z,60.99
2022-08-17T01:35:49.838Z,61.09
2022-08-17T01:38:27.200Z,61.37
2022-08-17T01:41:03.140Z,61.54
2022-08-17T01:43:36.585Z,61.95
2022-08-17T01:46:06.111Z,62.12
2022-08-17T01:48:59.865Z,62.45
2022-08-17T01:51:32.848Z,62.49
2022-08-17T01:54:07.439Z,62.63
2022-08-17T01:56:36.394Z,63.03
2022-08-17T01:59:09.458Z,63.03
2022-08-17T02:01:39.987Z,63.28
2022-08-17T02:04:13.400Z,63.20
2022-08-17T02:06:45.055Z,63.29
2022-08-17T02:09:19.563Z,63.45
2022-08-17T02:12:45.356Z,63.59
2022-08-17T02:15:16.237Z,63.48
2022-08-17T02:17:45.927Z,63.33
2022-08-17T02:23:37.892Z,63.56
2022-08-17T02:26:06.798Z,63.43
2022-08-17T02:28:35.829Z,63.38
2022-08-17T02:31:16.496Z,63.56
2022-08-17T02:33:45.347Z,63.58
2022-08-17T02:36:27.517Z,63.45
2022-08-17T02:38:57.076Z,63.49
2022-08-17T02:41:25.765Z,63.39
2022-08-17T02:44:00.818Z,63.13
2022-08-17T02:46:33.369Z,63.32
2022-08-17T02:49:03.225Z,63.20
2022-08-17T02:51:35.491Z,63.43
2022-08-17T02:54:40.129Z,63.33
2022-08-17T02:57:43.792Z,63.39
2022-08-17T03:00:39.685Z,63.31
2022-08-17T03:03:11.106Z,62.90
2022-08-17T03:05:40.820Z,62.84
2022-08-17T03:08:14.241Z,62.99
2022-08-17T03:10:50.579Z,62.80
2022-08-17T03:13:19.628Z,62.71
2022-08-17T03:15:49.242Z,62.13
2022-08-17T03:18:26.363Z,62.19
2022-08-17T03:20:56.032Z,62.07
2022-08-17T03:23:25.430Z,61.39
2022-08-17T03:25:57.531Z,60.94
2022-08-17T03:28:30.568Z,61.28
2022-08-17T03:31:24.102Z,61.21
2022-08-17T03:33:54.952Z,60.91
2022-08-17T03:36:23.805Z,61.07
2022-08-17T03:38:52.387Z,60.90
2022-08-17T03:41:20.991Z,60.67
2022-08-17T03:43:50.565Z,60.65
2022-08-17T03:46:41.799Z,60.39
2022-08-17T03:52:44.567Z,59.97
2022-08-17T03:55:38.576Z,59.86
2022-08-17T03:58:07.299Z,59.54
2022-08-17T04:00:43.626Z,59.26
2022-08-17T04:03:12.315Z,59.12
2022-08-17T04:05:42.695Z,58.94
2022-08-17T04:08:11.996Z,58.62
2022-08-17T04:10:44.944Z,58.60
2022-08-17T04:13:24.221Z,58.40
2022-08-17T04:15:54.648Z,57.70
2022-08-17T04:18:23.283Z,57.84
2022-08-17T04:20:54.291Z,56.80
2022-08-17T04:23:22.939Z,57.30
2022-08-17T04:25:54.061Z,56.86
2022-08-17T04:28:22.745Z,56.35
2022-08-17T04:30:51.425Z,55.96
2022-08-17T04:33:27.423Z,56.27
2022-08-17T04:36:00.009Z,55.75
2022-08-17T04:38:32.477Z,54.91
2022-08-17T04:41:21.291Z,54.58
2022-08-17T04:43:51.605Z,54.26
2022-08-17T04:46:27.365Z,54.76
2022-08-17T04:48:58.278Z,54.40
2022-08-17T04:51:31.248Z,54.03
2022-08-17T04:54:02.072Z,52.80
2022-08-17T04:56:33.014Z,53.15
2022-08-17T04:59:04.715Z,53.50
2022-08-17T05:01:58.155Z,53.37
2022-08-17T05:05:21.718Z,52.91
2022-08-17T05:07:52.613Z,52.58
2022-08-17T05:10:21.514Z,52.73
2022-08-17T05:12:59.900Z,52.49
2022-08-17T05:15:44.752Z,52.15
2022-08-17T05:18:13.982Z,52.02
2022-08-17T05:20:44.181Z,51.46
2022-08-17T05:23:17.826Z,51.63
2022-08-17T05:25:49.762Z,51.64
2022-08-17T05:28:23.465Z,51.20
2022-08-17T05:30:57.349Z,51.15
2022-08-17T05:33:33.529Z,50.83
2022-08-17T05:36:03.657Z,50.32
2022-08-17T05:38:35.084Z,50.32
2022-08-17T05:41:05.817Z,49.37
2022-08-17T05:43:36.833Z,49.89
2022-08-17T05:46:09.101Z,49.71
2022-08-17T05:48:43.081Z,49.66
2022-08-17T05:51:44.358Z,49.00
2022-08-17T05:55:10.822Z,48.49
2022-08-17T05:57:56.269Z,48.52
2022-08-17T06:00:30.782Z,48.45
2022-08-17T06:03:17.241Z,47.85
2022-08-17T06:06:03.896Z,48.34
2022-08-17T06:08:36.326Z,48.04
2022-08-17T06:11:12.131Z,48.21
2022-08-17T06:14:02.009Z,48.42
2022-08-17T06:16:36.866Z,47.67
2022-08-17T06:19:16.740Z,47.46
2022-08-17T06:21:48.307Z,47.22
2022-08-17T06:24:37.183Z,46.24
2022-08-17T06:27:17.889Z,46.08
2022-08-17T06:29:52.496Z,46.06
2022-08-17T06:32:23.355Z,45.87
2022-08-17T06:35:28.838Z,45.45
2022-08-17T06:38:05.466Z,45.77
2022-08-17T06:40:53.621Z,45.19
2022-08-17T06:43:49.220Z,45.02
2022-08-17T06:46:25.493Z,44.38
2022-08-17T06:49:07.560Z,44.56
2022-08-17T06:51:40.893Z,44.18
2022-08-17T06:54:37.150Z,43.96
2022-08-17T06:57:14.953Z,43.82
2022-08-17T07:03:37.806Z,43.33
2022-08-17T07:06:12.424Z,43.44
2022-08-17T07:08:49.951Z,41.96
2022-08-17T07:11:21.899Z,42.57
2022-08-17T07:14:04.355Z,42.55
2022-08-17T07:16:40.197Z,42.58
2022-08-17T07:23:00.602Z,42.15
2022-08-17T07:25:30.783Z,42.15
2022-08-17T07:28:02.627Z,42.20
2022-08-17T07:30:47.089Z,41.57
2022-08-17T07:33:24.399Z,41.31
2022-08-17T07:35:55.620Z,41.25
2022-08-17T07:38:28.702Z,41.34
2022-08-17T07:41:04.797Z,40.93
2022-08-17T07:43:36.227Z,40.13
2022-08-17T07:46:32.883Z,39.72
2022-08-17T07:52:50.797Z,38.59
2022-08-17T07:55:31.041Z,39.06
2022-08-17T07:58:00.470Z,38.38
2022-08-17T08:00:32.466Z,37.83
2022-08-17T08:03:20.506Z,38.14
2022-08-17T08:05:54.699Z,37.67
2022-08-17T08:08:33.990Z,37.53
2022-08-17T08:11:08.586Z,37.71
2022-08-17T08:13:42.621Z,37.35
2022-08-17T08:16:25.106Z,37.40
2022-08-17T08:28:20.769Z,37.08
2022-08-17T08:30:52.189Z,36.98
2022-08-17T08:33:34.315Z,36.64
2022-08-17T08:36:08.790Z,36.27
2022-08-17T08:38:43.502Z,36.48
2022-08-17T08:46:26.121Z,36.38
2022-08-17T08:53:04.521Z,36.75
2022-08-17T08:55:47.905Z,36.23
2022-08-17T08:58:31.870Z,36.69
2022-08-17T09:01:17.033Z,36.08
2022-08-17T09:13:21.535Z,37.10
2022-08-17T09:15:58.472Z,37.13
2022-08-17T09:19:00.285Z,36.85
2022-08-17T09:21:25.870Z,36.44
2022-08-17T09:24:01.912Z,36.35
2022-08-17T09:26:35.401Z,36.13
2022-08-17T09:32:55.451Z,36.81
2022-08-17T09:35:32.921Z,36.22
2022-08-17T09:38:16.395Z,35.63
2022-08-17T09:40:50.655Z,35.58
2022-08-17T09:43:30.733Z,35.24
2022-08-17T09:46:04.280Z,34.96
2022-08-17T09:48:39.086Z,35.28
2022-08-17T09:51:58.074Z,34.63
2022-08-17T09:55:40.345Z,34.38
2022-08-17T09:58:16.745Z,35.13
2022-08-17T10:00:53.240Z,35.39
2022-08-17T10:03:50.965Z,34.65
2022-08-17T10:06:24.047Z,34.35
2022-08-17T10:09:04.677Z,34.01
2022-08-17T10:11:50.460Z,33.96
2022-08-17T10:15:34.265Z,33.74
2022-08-17T10:18:18.107Z,34.85
2022-08-17T10:21:19.698Z,35.07
2022-08-17T10:24:07.960Z,35.18
2022-08-17T10:26:46.205Z,34.87
2022-08-17T10:30:43.896Z,34.39
2022-08-17T10:33:18.702Z,34.74
2022-08-17T10:35:53.578Z,34.67
2022-08-17T10:38:36.629Z,34.06
2022-08-17T10:41:16.029Z,34.16
2022-08-17T10:43:57.928Z,34.19
2022-08-17T10:48:04.310Z,34.08
2022-08-17T10:51:08.949Z,34.21
2022-08-17T10:57:42.003Z,34.08
2022-08-17T11:00:19.116Z,34.46
2022-08-17T11:02:51.116Z,34.33
2022-08-17T11:05:36.362Z,34.41
2022-08-17T11:09:00.117Z,34.45
2022-08-17T11:11:47.649Z,34.13
2022-08-17T11:18:38.541Z,33.03
2022-08-17T11:21:25.379Z,32.90
2022-08-17T11:24:10.598Z,32.67
2022-08-17T11:26:46.929Z,33.28
2022-08-17T11:30:05.679Z,33.13
2022-08-17T11:32:47.525Z,32.66
2022-08-17T11:35:33.820Z,33.50
2022-08-17T11:38:16.303Z,33.48
2022-08-17T11:41:04.639Z,33.10
2022-08-17T11:44:06.232Z,33.34
2022-08-17T11:48:09.517Z,33.63
2022-08-17T11:51:11.090Z,33.70
2022-08-17T11:58:03.709Z,33.45
2022-08-17T12:00:54.932Z,33.28
2022-08-17T12:03:55.662Z,33.43
2022-08-17T12:06:36.422Z,33.82
2022-08-17T12:12:56.517Z,34.16
2022-08-17T12:15:31.805Z,34.14
2022-08-17T12:18:01.347Z,33.91
2022-08-17T12:21:07.024Z,34.19
2022-08-17T12:23:44.180Z,33.83
2022-08-17T12:26:19.669Z,33.68
2022-08-17T12:28:51.851Z,33.18
2022-08-17T12:31:23.443Z,33.37
2022-08-17T12:33:53.328Z,33.64
2022-08-17T12:36:26.079Z,33.72
2022-08-17T12:39:12.808Z,33.13
2022-08-17T12:42:23.928Z,33.22
2022-08-17T12:45:24.420Z,33.04
2022-08-17T12:48:02.874Z,32.55
2022-08-17T12:50:32.340Z,32.72
2022-08-17T12:53:02.637Z,32.56
2022-08-17T12:55:40.217Z,32.34
2022-08-17T12:58:19.097Z,32.70
2022-08-17T13:00:53.945Z,32.75
2022-08-17T13:03:36.388Z,32.60
2022-08-17T13:06:07.498Z,32.54
2022-08-17T13:08:38.405Z,32.16
2022-08-17T13:11:13.465Z,32.17
2022-08-17T13:13:43.968Z,32.44
2022-08-17T13:16:20.865Z,32.32
2022-08-17T13:18:51.351Z,31.93
2022-08-17T13:21:27.655Z,31.66
2022-08-17T13:23:58.618Z,31.25
2022-08-17T13:26:32.774Z,31.44
2022-08-17T13:29:04.089Z,31.07
2022-08-17T13:31:51.829Z,31.06
2022-08-17T13:34:34.315Z,31.13
2022-08-17T13:37:33.055Z,31.19
2022-08-17T13:40:29.296Z,31.41
2022-08-17T13:42:59.044Z,30.88
2022-08-17T13:45:44.676Z,30.84
2022-08-17T13:48:25.337Z,31.10
2022-08-17T13:51:15.098Z,31.19
2022-08-17T13:53:57.869Z,30.80
2022-08-17T13:56:31.710Z,31.13
2022-08-17T13:59:08.730Z,30.97
2022-08-17T14:01:47.469Z,31.53
2022-08-17T14:05:33.548Z,31.69
2022-08-17T14:08:08.316Z,31.02
2022-08-17T14:10:40.318Z,31.38
2022-08-17T14:13:09.480Z,31.17
2022-08-17T14:15:55.754Z,31.04
2022-08-17T14:18:55.438Z,31.41
2022-08-17T14:21:17.538Z,31.49
2022-08-17T14:23:54.423Z,31.31
2022-08-17T14:29:19.592Z,31.81
2022-08-17T14:31:54.507Z,31.83
2022-08-17T14:35:39.257Z,31.88
2022-08-17T14:38:08.616Z,32.05
2022-08-17T14:41:29.232Z,32.22
2022-08-17T14:44:02.048Z,32.31
2022-08-17T14:46:55.588Z,32.51
2022-08-17T14:50:37.348Z,32.54
2022-08-17T14:53:11.353Z,32.14
2022-08-17T14:56:05.731Z,32.13
2022-08-17T14:58:34.481Z,31.93
2022-08-17T15:01:32.028Z,32.31
2022-08-17T15:04:07.185Z,32.39
2022-08-17T15:07:00.932Z,32.17
2022-08-17T15:10:20.267Z,31.88
2022-08-17T15:12:49.389Z,32.04
2022-08-17T15:15:19.232Z,31.90
2022-08-17T15:17:51.802Z,32.22
2022-08-17T15:20:28.965Z,32.07
2022-08-17T15:22:59.346Z,32.49
2022-08-17T15:25:53.705Z,32.52
2022-08-17T15:28:24.068Z,32.25
2022-08-17T15:30:57.322Z,32.70
2022-08-17T15:33:31.981Z,32.70
2022-08-17T15:36:06.601Z,32.46
2022-08-17T15:38:36.991Z,32.06
2022-08-17T15:41:05.655Z,31.59
2022-08-17T15:43:34.991Z,31.90
2022-08-17T15:49:09.933Z,31.67
2022-08-17T15:52:16.968Z,31.92
2022-08-17T15:55:13.333Z,32.00
2022-08-17T15:57:45.990Z,32.02
2022-08-17T16:00:53.124Z,31.85
2022-08-17T16:04:01.278Z,32.16
2022-08-17T16:06:19.985Z,32.49
2022-08-17T16:08:51.862Z,32.48
2022-08-17T16:11:26.454Z,32.12
2022-08-17T16:13:56.157Z,32.08
2022-08-17T16:16:29.176Z,32.17
2022-08-17T16:18:59.365Z,32.27
2022-08-17T16:21:42.448Z,32.42
2022-08-17T16:24:15.009Z,32.83
2022-08-17T16:26:46.904Z,32.70
2022-08-17T16:29:15.557Z,32.95
2022-08-17T16:31:44.251Z,32.87
2022-08-17T16:34:15.727Z,33.21
2022-08-17T16:37:40.216Z,32.91
2022-08-17T16:40:43.558Z,33.20
2022-08-17T16:43:37.983Z,33.23
2022-08-17T16:46:08.661Z,33.10
2022-08-17T16:48:37.319Z,33.23
2022-08-17T16:51:06.204Z,33.16
2022-08-17T16:53:36.539Z,33.30
2022-08-17T16:56:10.337Z,33.15
2022-08-17T16:58:41.182Z,33.45
2022-08-17T17:01:39.001Z,33.32
2022-08-17T17:04:10.865Z,33.30
2022-08-17T17:07:42.111Z,33.63
2022-08-17T17:10:40.369Z,33.74
2022-08-17T17:13:14.596Z,33.76
2022-08-17T17:15:55.651Z,33.80
2022-08-17T17:18:29.718Z,34.30
2022-08-17T18:43:53.152Z,37.89
2022-08-17T18:46:30.573Z,38.03
2022-08-17T18:49:03.095Z,38.08
2022-08-17T18:51:41.715Z,38.84
2022-08-17T18:54:20.932Z,38.67
2022-08-17T18:56:57.247Z,38.72
2022-08-17T18:59:36.980Z,38.82
2022-08-17T19:02:43.861Z,39.00
2022-08-17T19:05:14.596Z,38.88
2022-08-17T19:07:46.769Z,39.03
2022-08-17T19:10:21.877Z,39.23
2022-08-17T19:12:55.218Z,39.22
2022-08-17T19:15:40.436Z,39.54
2022-08-17T19:18:15.520Z,39.65
2022-08-17T19:20:47.256Z,39.83
2022-08-17T19:23:21.871Z,40.00
2022-08-17T19:25:52.625Z,40.06
2022-08-17T19:28:25.464Z,40.35
2022-08-17T19:30:59.624Z,40.49
2022-08-17T19:33:28.716Z,40.47
2022-08-17T19:36:03.418Z,40.54
2022-08-17T19:38:42.799Z,40.57
2022-08-17T19:41:17.920Z,40.99
2022-08-17T19:44:32.862Z,40.97
2022-08-17T19:47:08.816Z,41.15
2022-08-17T19:49:47.044Z,41.39
2022-08-17T19:52:41.953Z,41.32
2022-08-17T19:55:20.598Z,41.49
2022-08-17T19:58:00.144Z,41.76
2022-08-17T20:00:31.369Z,41.69
2022-08-17T20:03:05.923Z,41.65
2022-08-17T20:05:54.604Z,42.06
2022-08-17T20:08:28.097Z,42.16
2022-08-17T20:11:01.135Z,42.38
2022-08-17T20:13:35.122Z,42.40
2022-08-17T20:16:05.038Z,42.44
2022-08-17T20:18:44.055Z,42.69
2022-08-17T20:21:20.854Z,42.49
2022-08-17T20:23:54.874Z,42.86
2022-08-17T20:26:27.022Z,42.85
2022-08-17T20:29:37.268Z,43.11
2022-08-17T20:32:25.696Z,43.31
2022-08-17T20:35:11.152Z,43.43
2022-08-17T20:37:43.301Z,43.60
2022-08-17T20:40:36.614Z,43.72
2022-08-17T20:43:59.221Z,43.74
2022-08-17T20:47:02.046Z,43.85
2022-08-17T20:49:42.409Z,43.93
2022-08-17T20:52:13.584Z,44.21
2022-08-17T20:54:51.272Z,44.02
2022-08-17T20:57:49.128Z,44.27
2022-08-17T21:00:45.871Z,44.98
2022-08-17T21:03:52.353Z,44.47
2022-08-17T21:06:26.819Z,45.22
2022-08-17T21:08:59.119Z,45.28
2022-08-17T21:12:04.210Z,45.13
2022-08-17T21:14:56.303Z,46.36
2022-08-17T21:17:51.573Z,44.80
2022-08-17T21:20:32.563Z,45.84
2022-08-17T21:23:23.669Z,45.29
2022-08-17T21:26:10.924Z,46.48
2022-08-17T21:28:59.895Z,46.96
2022-08-17T21:31:35.416Z,46.55
2022-08-17T21:34:25.989Z,50.11
2022-08-17T21:36:54.565Z,49.65
2022-08-17T21:39:33.774Z,53.16
2022-08-17T21:42:02.584Z,53.24
2022-08-17T21:44:35.723Z,53.80
2022-08-17T21:47:16.724Z,54.06
2022-08-17T21:49:45.396Z,53.88
2022-08-17T21:52:15.148Z,53.23
2022-08-17T21:54:52.731Z,52.77
2022-08-17T21:57:23.909Z,52.37
2022-08-17T21:59:54.934Z,52.13
2022-08-17T22:02:26.312Z,50.91
2022-08-17T22:05:00.849Z,51.67
2022-08-17T22:07:38.861Z,52.42
2022-08-17T22:10:27.442Z,52.51
2022-08-17T22:13:16.511Z,52.04
2022-08-17T22:15:47.837Z,51.59
2022-08-17T22:18:21.256Z,51.35
2022-08-17T22:20:52.274Z,51.59
2022-08-17T22:23:45.278Z,51.40
2022-08-17T22:26:18.207Z,51.00
2022-08-17T22:28:49.726Z,50.91
2022-08-17T22:31:19.830Z,50.96
2022-08-17T22:33:49.987Z,50.89
2022-08-17T22:36:24.824Z,51.30
2022-08-17T22:38:55.509Z,50.81
2022-08-17T22:41:34.944Z,51.47
2022-08-17T22:44:14.244Z,50.90
2022-08-17T22:46:52.132Z,51.39
2022-08-17T22:49:29.348Z,51.69
2022-08-17T22:52:11.003Z,51.74
2022-08-17T22:54:57.526Z,52.29
2022-08-17T22:57:46.234Z,52.69
2022-08-17T23:00:33.922Z,52.95
2022-08-17T23:03:09.261Z,53.01
2022-08-17T23:05:39.285Z,53.05
2022-08-17T23:08:08.041Z,52.71
2022-08-17T23:10:37.609Z,52.56
2022-08-17T23:13:11.966Z,52.28
2022-08-17T23:15:41.473Z,52.40
2022-08-17T23:18:10.270Z,52.29
2022-08-17T23:20:40.830Z,52.33
2022-08-17T23:23:10.198Z,52.46
2022-08-17T23:25:39.324Z,52.40
2022-08-17T23:28:09.252Z,52.61
2022-08-17T23:30:41.091Z,52.72
2022-08-17T23:33:12.105Z,53.04
2022-08-17T23:35:41.196Z,53.15
2022-08-17T23:38:10.887Z,53.31
2022-08-17T23:40:39.994Z,53.27
2022-08-17T23:43:24.584Z,53.56
2022-08-17T23:45:55.448Z,53.39
2022-08-17T23:48:28.417Z,53.50
2022-08-17T23:51:09.219Z,53.83
2022-08-17T23:53:38.987Z,53.79
2022-08-17T23:56:11.315Z,53.97
2022-08-17T23:58:43.397Z,54.25
